createdAt,value
2022-08-05T00:00:18.581Z,3.37
2022-08-05T00:02:51.816Z,3.67
2022-08-05T00:06:02.582Z,3.30
2022-08-05T00:08:32.452Z,3.90
2022-08-05T00:11:00.463Z,5.33
2022-08-05T00:13:38.268Z,3.57
2022-08-05T00:16:09.532Z,4.17
2022-08-05T00:18:42.282Z,3.23
2022-08-05T00:21:12.716Z,3.00
2022-08-05T00:23:46.718Z,4.00
2022-08-05T00:26:22.292Z,3.50
2022-08-05T00:28:51.559Z,3.47
2022-08-05T00:31:53.370Z,4.10
2022-08-05T00:34:56.630Z,4.07
2022-08-05T00:37:10.761Z,5.10
2022-08-05T00:39:58.669Z,3.73
2022-08-05T00:42:35.036Z,4.20
2022-08-05T00:45:05.524Z,4.17
2022-08-05T00:47:56.818Z,4.37
2022-08-05T00:50:25.906Z,4.00
2022-08-05T00:52:55.819Z,3.60
2022-08-05T00:55:34.065Z,3.73
2022-08-05T00:58:12.035Z,4.23
2022-08-05T01:00:42.295Z,3.57
2022-08-05T01:03:12.544Z,3.50
2022-08-05T01:05:51.243Z,4.13
2022-08-05T01:08:40.885Z,3.70
2022-08-05T01:11:14.430Z,3.50
2022-08-05T01:14:01.210Z,3.80
2022-08-05T01:16:34.868Z,3.87
2022-08-05T01:19:14.199Z,3.60
2022-08-05T01:22:10.862Z,3.70
2022-08-05T01:25:00.770Z,3.63
2022-08-05T01:27:55.091Z,4.10
2022-08-05T01:30:34.013Z,4.20
2022-08-05T01:33:08.380Z,4.60
2022-08-05T01:35:50.887Z,3.90
2022-08-05T01:38:27.398Z,4.23
2022-08-05T01:41:01.219Z,4.53
2022-08-05T01:43:33.717Z,4.47
2022-08-05T01:46:07.116Z,3.90
2022-08-05T01:48:49.661Z,4.20
2022-08-05T01:51:20.218Z,3.77
2022-08-05T01:53:57.214Z,3.90
2022-08-05T01:58:09.943Z,3.53
2022-08-05T01:59:24.793Z,4.40
2022-08-05T02:01:56.019Z,3.80
2022-08-05T02:04:30.216Z,3.80
2022-08-05T02:07:00.486Z,4.40
2022-08-05T02:09:32.160Z,4.57
2022-08-05T02:12:10.121Z,4.13
2022-08-05T02:14:47.082Z,4.50
2022-08-05T02:18:15.178Z,3.70
2022-08-05T02:20:20.474Z,4.70
2022-08-05T02:22:56.542Z,4.53
2022-08-05T02:25:33.122Z,5.00
2022-08-05T02:28:08.693Z,5.10
2022-08-05T02:30:51.812Z,5.03
2022-08-05T02:33:38.542Z,6.30
2022-08-05T02:36:13.737Z,7.80
2022-08-05T02:38:52.830Z,8.83
2022-08-05T02:41:23.627Z,8.20
2022-08-05T02:44:06.252Z,8.87
2022-08-05T02:46:58.880Z,9.63
2022-08-05T02:49:36.640Z,10.70
2022-08-05T02:52:11.565Z,10.50
2022-08-05T02:54:51.182Z,10.00
2022-08-05T02:58:09.654Z,11.13
2022-08-05T03:00:14.532Z,11.23
2022-08-05T03:02:47.095Z,11.07
2022-08-05T03:05:21.953Z,11.70
2022-08-05T03:08:09.568Z,12.30
2022-08-05T03:10:40.001Z,11.83
2022-08-05T03:13:17.802Z,11.33
2022-08-05T03:15:47.214Z,12.30
2022-08-05T03:18:17.751Z,10.77
2022-08-05T03:20:54.568Z,12.40
2022-08-05T03:23:24.719Z,10.90
2022-08-05T03:26:04.971Z,12.00
2022-08-05T03:28:42.094Z,11.77
2022-08-05T03:31:11.601Z,12.77
2022-08-05T03:34:01.765Z,11.30
2022-08-05T03:36:30.870Z,12.80
2022-08-05T03:38:59.912Z,12.77
2022-08-05T03:41:33.264Z,12.77
2022-08-05T03:44:11.854Z,12.13
2022-08-05T03:46:41.240Z,13.70
2022-08-05T03:49:11.662Z,13.80
2022-08-05T03:52:50.548Z,14.23
2022-08-05T03:55:53.700Z,15.20
2022-08-05T03:57:44.363Z,14.73
2022-08-05T04:00:16.454Z,15.23
2022-08-05T04:02:57.807Z,14.87
2022-08-05T04:05:33.576Z,14.63
2022-08-05T04:08:05.722Z,14.60
2022-08-05T04:10:45.396Z,15.60
2022-08-05T04:13:14.943Z,14.60
2022-08-05T04:16:03.004Z,15.47
2022-08-05T04:18:34.278Z,13.80
2022-08-05T04:21:07.943Z,14.07
2022-08-05T04:24:05.239Z,15.23
2022-08-05T04:26:32.438Z,15.87
2022-08-05T04:29:07.067Z,16.43
2022-08-05T04:31:38.383Z,17.20
2022-08-05T04:34:31.602Z,16.03
2022-08-05T04:36:58.381Z,15.70
2022-08-05T04:39:27.586Z,18.00
2022-08-05T04:41:56.186Z,17.77
2022-08-05T04:44:30.047Z,18.33
2022-08-05T04:46:59.768Z,20.20
2022-08-05T04:49:38.966Z,18.37
2022-08-05T04:52:20.128Z,18.27
2022-08-05T04:54:50.013Z,20.47
2022-08-05T04:57:18.793Z,19.53
2022-08-05T04:59:48.124Z,21.27
2022-08-05T05:02:36.334Z,22.00
2022-08-05T05:05:26.032Z,23.00
2022-08-05T05:08:01.454Z,22.10
2022-08-05T05:10:33.135Z,24.17
2022-08-05T05:13:05.388Z,22.73
2022-08-05T05:15:54.265Z,23.27
2022-08-05T05:18:31.135Z,23.90
2022-08-05T05:21:06.119Z,24.80
2022-08-05T05:23:39.144Z,27.83
2022-08-05T05:26:28.513Z,30.87
2022-08-05T05:29:14.277Z,31.37
2022-08-05T05:31:46.547Z,31.73
2022-08-05T05:34:18.142Z,30.90
2022-08-05T05:36:54.596Z,33.17
2022-08-05T05:39:34.589Z,32.27
2022-08-05T05:42:08.048Z,33.90
2022-08-05T05:44:43.108Z,32.30
2022-08-05T05:47:21.505Z,33.60
2022-08-05T05:50:01.877Z,34.47
2022-08-05T05:52:40.667Z,33.03
2022-08-05T05:55:24.514Z,35.97
2022-08-05T05:58:14.827Z,34.33
2022-08-05T06:00:46.969Z,34.53
2022-08-05T06:03:40.741Z,36.00
2022-08-05T06:06:18.826Z,36.30
2022-08-05T06:08:51.523Z,34.57
2022-08-05T06:11:23.305Z,35.33
2022-08-05T06:13:55.256Z,31.20
2022-08-05T06:16:29.280Z,36.83
2022-08-05T06:19:05.811Z,36.00
2022-08-05T06:21:38.807Z,36.60
2022-08-05T06:24:14.758Z,36.30
2022-08-05T06:26:51.992Z,37.97
2022-08-05T06:29:49.578Z,38.57
2022-08-05T06:32:28.969Z,39.07
2022-08-05T06:34:58.792Z,41.87
2022-08-05T06:37:39.443Z,42.10
2022-08-05T06:40:21.419Z,43.10
2022-08-05T06:42:57.470Z,41.80
2022-08-05T06:45:44.027Z,40.20
2022-08-05T06:48:52.920Z,41.27
2022-08-05T06:51:22.716Z,40.00
2022-08-05T06:53:57.482Z,38.50
2022-08-05T06:56:27.209Z,41.50
2022-08-05T06:58:57.222Z,42.73
2022-08-05T07:01:32.359Z,39.90
2022-08-05T07:04:02.472Z,40.40
2022-08-05T07:06:31.899Z,40.23
2022-08-05T07:09:04.149Z,40.60
2022-08-05T07:11:36.807Z,41.00
2022-08-05T07:14:29.346Z,35.80
2022-08-05T07:17:58.406Z,37.57
2022-08-05T07:20:32.414Z,36.90
2022-08-05T07:22:39.896Z,37.97
2022-08-05T07:25:54.404Z,39.27
2022-08-05T07:28:05.328Z,42.40
2022-08-05T07:30:40.157Z,38.13
2022-08-05T07:33:16.226Z,38.90
2022-08-05T07:36:01.625Z,36.90
2022-08-05T07:38:42.961Z,38.60
2022-08-05T07:42:13.353Z,37.10
2022-08-05T07:44:14.186Z,37.40
2022-08-05T07:46:50.265Z,38.73
2022-08-05T07:49:20.583Z,40.63
2022-08-05T07:51:54.507Z,43.30
2022-08-05T07:54:31.082Z,44.43
2022-08-05T07:57:17.612Z,44.83
2022-08-05T07:59:51.396Z,44.40
2022-08-05T08:02:26.566Z,45.97
2022-08-05T08:05:01.040Z,43.00
2022-08-05T08:07:39.483Z,41.90
2022-08-05T08:10:20.730Z,40.00
2022-08-05T08:12:50.049Z,41.13
2022-08-05T08:16:35.712Z,39.40
2022-08-05T08:18:13.786Z,42.50
2022-08-05T08:21:02.098Z,39.77
2022-08-05T08:24:02.126Z,39.50
2022-08-05T08:26:29.754Z,72.80
2022-08-05T08:29:02.407Z,50.60
2022-08-05T08:31:52.661Z,50.47
2022-08-05T08:34:30.843Z,49.43
2022-08-05T08:37:04.597Z,49.87
2022-08-05T08:39:37.430Z,58.07
2022-08-05T08:42:32.430Z,54.90
2022-08-05T08:45:19.347Z,49.73
2022-08-05T08:48:07.387Z,47.60
2022-08-05T08:51:04.191Z,47.53
2022-08-05T08:53:44.262Z,46.03
2022-08-05T08:56:13.791Z,42.20
2022-08-05T08:58:44.666Z,39.77
2022-08-05T09:01:18.064Z,38.10
2022-08-05T09:03:48.375Z,38.83
2022-08-05T09:06:28.032Z,41.37
2022-08-05T09:08:59.084Z,58.67
2022-08-05T09:11:50.788Z,37.37
2022-08-05T09:14:57.765Z,46.90
2022-08-05T09:17:41.354Z,27.30
2022-08-05T09:20:04.771Z,25.70
2022-08-05T09:23:07.711Z,27.00
2022-08-05T09:26:02.704Z,25.97
2022-08-05T09:28:32.112Z,24.77
2022-08-05T09:31:18.277Z,37.17
2022-08-05T09:33:56.608Z,39.63
2022-08-05T09:36:38.651Z,22.33
2022-08-05T09:39:26.416Z,23.33
2022-08-05T09:42:08.449Z,23.77
2022-08-05T09:44:41.623Z,21.90
2022-08-05T09:47:15.464Z,21.40
2022-08-05T09:50:01.473Z,20.70
2022-08-05T09:52:36.604Z,19.83
2022-08-05T09:55:57.570Z,16.93
2022-08-05T09:58:13.161Z,19.47
2022-08-05T10:00:52.583Z,18.57
2022-08-05T10:03:25.937Z,25.60
2022-08-05T10:06:15.935Z,16.10
2022-08-05T10:08:45.969Z,17.40
2022-08-05T10:11:31.245Z,17.67
2022-08-05T10:14:23.447Z,17.53
2022-08-05T10:16:56.897Z,17.50
2022-08-05T10:19:31.922Z,17.40
2022-08-05T10:22:29.779Z,17.50
2022-08-05T10:24:59.900Z,18.10
2022-08-05T10:28:13.576Z,17.17
2022-08-05T10:32:47.339Z,16.80
2022-08-05T10:33:14.693Z,15.70
2022-08-05T10:35:44.181Z,14.70
2022-08-05T10:38:14.832Z,13.00
2022-08-05T10:40:58.038Z,14.67
2022-08-05T10:43:37.180Z,12.03
2022-08-05T10:46:10.726Z,11.53
2022-08-05T10:48:52.581Z,11.13
2022-08-05T10:51:29.120Z,10.43
2022-08-05T10:54:01.559Z,10.67
2022-08-05T10:56:38.495Z,11.33
2022-08-05T11:00:04.121Z,14.30
2022-08-05T11:02:14.169Z,14.63
2022-08-05T11:04:58.976Z,13.17
2022-08-05T11:07:32.835Z,7.20
2022-08-05T11:10:27.394Z,6.90
2022-08-05T11:12:58.073Z,5.80
2022-08-05T11:15:59.535Z,5.63
2022-08-05T11:18:30.159Z,6.50
2022-08-05T11:21:06.425Z,6.47
2022-08-05T11:24:03.997Z,5.53
2022-08-05T11:26:53.060Z,32.40
2022-08-05T11:29:41.001Z,8.33
2022-08-05T11:32:29.591Z,8.00
2022-08-05T11:34:58.748Z,5.90
2022-08-05T11:38:30.623Z,6.30
2022-08-05T11:41:35.040Z,7.13
2022-08-05T11:44:06.461Z,5.87
2022-08-05T11:47:10.011Z,5.63
2022-08-05T11:49:29.010Z,5.90
2022-08-05T11:52:11.391Z,4.70
2022-08-05T11:54:41.804Z,5.00
2022-08-05T11:57:24.370Z,4.83
2022-08-05T11:59:55.487Z,13.13
2022-08-05T12:02:33.360Z,12.17
2022-08-05T12:05:18.047Z,5.70
2022-08-05T12:08:03.195Z,5.67
2022-08-05T12:10:45.126Z,12.37
2022-08-05T12:13:27.935Z,16.57
2022-08-05T12:16:14.775Z,6.23
2022-08-05T12:18:49.489Z,4.70
2022-08-05T12:21:33.626Z,5.30
2022-08-05T12:24:09.762Z,10.13
2022-08-05T12:26:44.323Z,17.50
2022-08-05T12:29:16.249Z,9.00
2022-08-05T12:31:53.414Z,4.07
2022-08-05T12:34:25.917Z,4.90
2022-08-05T12:36:56.933Z,4.07
2022-08-05T12:39:34.683Z,5.17
2022-08-05T12:42:14.965Z,6.30
2022-08-05T12:44:47.368Z,5.07
2022-08-05T12:47:28.739Z,4.80
2022-08-05T12:50:04.139Z,4.60
2022-08-05T12:52:39.208Z,4.83
2022-08-05T12:55:22.444Z,4.90
2022-08-05T12:58:50.262Z,4.60
2022-08-05T13:02:00.258Z,4.40
2022-08-05T13:03:42.969Z,4.80
2022-08-05T13:06:16.810Z,4.73
2022-08-05T13:08:51.724Z,4.10
2022-08-05T13:12:02.573Z,5.40
2022-08-05T13:14:24.653Z,4.80
2022-08-05T13:17:10.315Z,5.37
2022-08-05T13:19:52.133Z,4.93
2022-08-05T13:22:28.249Z,5.20
2022-08-05T13:25:05.893Z,5.47
2022-08-05T13:27:39.815Z,5.30
2022-08-05T13:30:32.921Z,5.43
2022-08-05T13:33:01.173Z,5.30
2022-08-05T13:35:47.114Z,5.07
2022-08-05T13:38:30.823Z,4.83
2022-08-05T13:41:04.441Z,6.07
2022-08-05T13:43:45.651Z,5.60
2022-08-05T13:46:37.974Z,4.97
2022-08-05T13:49:17.756Z,5.93
2022-08-05T13:51:47.116Z,120.37
2022-08-05T13:54:21.207Z,35.80
2022-08-05T13:56:55.720Z,13.37
2022-08-05T13:59:27.220Z,5.07
2022-08-05T14:01:58.811Z,5.20
2022-08-05T14:04:57.195Z,22.60
2022-08-05T14:08:00.844Z,50.53
2022-08-05T14:10:29.023Z,6.27
2022-08-05T14:13:01.247Z,5.40
2022-08-05T14:16:08.734Z,6.17
2022-08-05T14:18:24.246Z,5.23
2022-08-05T14:20:55.302Z,5.47
2022-08-05T14:23:29.664Z,5.30
2022-08-05T14:26:06.435Z,5.40
2022-08-05T14:28:37.739Z,5.30
2022-08-05T14:32:03.884Z,5.30
2022-08-05T14:34:25.790Z,5.50
2022-08-05T14:36:55.953Z,4.77
2022-08-05T14:39:25.611Z,4.10
2022-08-05T15:18:57.996Z,2.10
2022-08-05T15:21:30.540Z,2.80
2022-08-05T15:23:59.632Z,2.30
2022-08-05T15:34:18.524Z,1.77
2022-08-05T15:40:59.159Z,2.07
2022-08-05T15:42:56.151Z,2.20
2022-08-05T15:45:38.810Z,2.50
2022-08-05T15:48:07.240Z,2.43
2022-08-05T15:50:35.800Z,2.30
2022-08-05T15:53:06.399Z,2.60
2022-08-05T15:56:02.267Z,2.80
2022-08-05T15:58:28.120Z,3.00
2022-08-05T16:01:11.678Z,2.67
2022-08-05T16:03:45.117Z,3.30
2022-08-05T16:06:19.993Z,3.07
2022-08-05T16:08:51.004Z,2.50
2022-08-05T16:11:42.952Z,2.80
2022-08-05T16:14:17.201Z,3.40
2022-08-05T16:16:46.891Z,3.50
2022-08-05T16:19:25.838Z,16.70
2022-08-05T16:22:04.297Z,31.90
2022-08-05T16:24:40.337Z,3.10
2022-08-05T16:27:16.116Z,4.13
2022-08-05T16:29:50.084Z,8.30
2022-08-05T16:32:28.460Z,2.30
2022-08-05T16:34:58.958Z,2.50
2022-08-05T16:38:02.635Z,2.10
2022-08-05T16:40:26.519Z,2.00
2022-08-05T16:42:58.852Z,1.90
2022-08-05T16:46:06.977Z,3.10
2022-08-05T16:48:25.312Z,1.43
2022-08-05T16:50:54.707Z,1.67
2022-08-05T16:54:02.231Z,1.23
2022-08-05T16:56:11.740Z,2.00
2022-08-05T16:58:41.798Z,1.77
2022-08-05T17:01:10.554Z,2.40
2022-08-05T17:03:39.377Z,2.33
2022-08-05T17:06:08.404Z,1.57
2022-08-05T17:08:52.960Z,2.87
2022-08-05T17:11:25.098Z,2.70
2022-08-05T17:14:05.751Z,2.80
2022-08-05T17:16:36.129Z,2.60
2022-08-05T17:19:07.464Z,1.80
2022-08-05T17:21:37.746Z,1.43
2022-08-05T17:24:19.810Z,2.20
2022-08-05T17:26:57.681Z,3.57
2022-08-05T17:29:33.375Z,1.37
2022-08-05T17:32:16.858Z,1.63
2022-08-05T17:34:47.554Z,2.30
2022-08-05T17:37:40.803Z,4.27
2022-08-05T17:40:10.750Z,1.80
2022-08-05T17:42:42.927Z,1.60
2022-08-05T17:45:21.823Z,1.07
2022-08-05T17:47:54.666Z,1.87
2022-08-05T17:50:28.406Z,1.40
2022-08-05T17:52:59.085Z,1.83
2022-08-05T17:55:37.735Z,2.30
2022-08-05T17:58:11.143Z,1.10
2022-08-05T18:00:44.962Z,1.87
2022-08-05T18:06:11.090Z,2.30
2022-08-05T18:08:44.961Z,3.27
2022-08-05T18:11:23.156Z,3.80
2022-08-05T18:13:53.147Z,3.20
2022-08-05T18:16:22.623Z,3.57
2022-08-05T18:18:50.916Z,2.53
2022-08-05T18:21:22.879Z,1.73
2022-08-05T18:23:54.366Z,2.07
2022-08-05T18:26:27.778Z,7.03
2022-08-05T18:28:58.553Z,61.83
2022-08-05T18:31:33.013Z,1.87
2022-08-05T18:34:02.192Z,1.70
2022-08-05T18:36:30.501Z,1.90
2022-08-05T18:38:58.651Z,1.83
2022-08-05T18:41:58.335Z,1.10
2022-08-05T18:44:33.326Z,1.23
2022-08-05T18:47:05.352Z,1.87
2022-08-05T18:49:58.445Z,1.57
2022-08-05T18:52:35.656Z,1.40
2022-08-05T18:55:10.376Z,1.47
2022-08-05T18:57:50.202Z,1.90
2022-08-05T19:00:28.451Z,1.60
2022-08-05T19:03:03.634Z,1.80
2022-08-05T19:06:12.020Z,1.10
2022-08-05T19:08:22.286Z,2.40
2022-08-05T19:11:04.559Z,1.60
2022-08-05T19:13:35.560Z,1.20
2022-08-05T19:16:05.617Z,1.30
2022-08-05T19:18:56.654Z,1.23
2022-08-05T19:21:27.732Z,1.20
2022-08-05T19:24:05.142Z,1.40
2022-08-05T19:26:43.787Z,2.37
2022-08-05T19:29:23.988Z,2.97
2022-08-05T19:31:55.948Z,4.13
2022-08-05T19:34:27.675Z,2.77
2022-08-05T19:36:58.484Z,2.40
2022-08-05T19:39:28.292Z,3.00
2022-08-05T19:42:06.077Z,2.10
2022-08-05T19:44:40.489Z,1.57
2022-08-05T19:47:16.163Z,1.33
2022-08-05T19:49:47.017Z,1.30
2022-08-05T19:52:30.792Z,1.40
2022-08-05T19:55:07.681Z,1.47
2022-08-05T19:57:47.388Z,1.60
2022-08-05T20:00:25.238Z,1.70
2022-08-05T20:02:53.860Z,1.80
2022-08-05T20:05:26.389Z,2.47
2022-08-05T20:08:11.697Z,4.20
2022-08-05T20:10:39.830Z,2.07
2022-08-05T20:13:12.136Z,1.50
2022-08-05T20:15:52.049Z,1.50
2022-08-05T20:18:33.806Z,2.17
2022-08-05T20:21:06.744Z,2.80
2022-08-05T20:23:40.362Z,2.10
2022-08-05T20:26:20.556Z,1.90
2022-08-05T20:28:50.649Z,1.90
2022-08-05T20:31:21.926Z,1.73
2022-08-05T20:33:51.877Z,1.33
2022-08-05T20:36:23.933Z,1.10
2022-08-05T20:38:54.663Z,1.10
2022-08-05T20:41:44.320Z,1.10
2022-08-05T20:44:17.678Z,1.43
2022-08-05T20:46:56.993Z,1.53
2022-08-05T20:49:26.069Z,1.90
2022-08-05T20:51:57.257Z,1.10
2022-08-05T20:54:42.980Z,1.37
2022-08-05T20:57:41.958Z,1.57
2022-08-05T21:00:21.008Z,1.37
2022-08-05T21:02:57.102Z,1.40
2022-08-05T21:05:25.842Z,1.30
2022-08-05T21:08:07.841Z,1.67
2022-08-05T21:10:36.541Z,1.50
2022-08-05T21:13:11.059Z,2.40
2022-08-05T21:15:46.103Z,1.77
2022-08-05T21:18:19.353Z,1.30
2022-08-05T21:20:51.587Z,1.67
2022-08-05T21:23:23.005Z,1.40
2022-08-05T21:25:52.147Z,1.60
2022-08-05T21:28:24.058Z,1.37
2022-08-05T21:30:58.988Z,2.00
2022-08-05T21:33:39.970Z,1.80
2022-08-05T21:36:08.825Z,1.60
2022-08-05T21:38:40.573Z,1.40
2022-08-05T21:41:09.587Z,1.70
2022-08-05T21:43:41.811Z,2.23
2022-08-05T21:46:11.841Z,4.50
2022-08-05T21:48:40.185Z,2.57
2022-08-05T21:52:16.060Z,1.90
2022-08-05T21:54:03.626Z,1.60
2022-08-05T21:56:32.142Z,1.53
2022-08-05T21:59:01.427Z,2.03
2022-08-05T22:01:36.368Z,1.57
2022-08-05T22:04:05.403Z,1.77
2022-08-05T22:06:39.680Z,1.30
2022-08-05T22:09:13.858Z,1.80
2022-08-05T22:11:46.868Z,1.77
2022-08-05T22:14:33.159Z,2.33
2022-08-05T22:17:06.533Z,2.13
2022-08-05T22:20:00.104Z,1.50
2022-08-05T22:22:27.658Z,1.70
2022-08-05T22:25:18.123Z,1.70
2022-08-05T22:28:08.471Z,1.67
2022-08-05T22:30:55.327Z,1.60
2022-08-05T22:33:56.615Z,1.60
2022-08-05T22:36:15.329Z,1.60
2022-08-05T22:38:48.170Z,1.40
2022-08-05T22:42:04.353Z,1.50
2022-08-05T22:44:08.812Z,1.47
2022-08-05T22:46:39.764Z,1.47
2022-08-05T22:49:12.413Z,1.40
2022-08-05T22:52:04.938Z,1.40
2022-08-05T22:54:38.886Z,1.50
2022-08-05T22:57:08.723Z,1.53
2022-08-05T22:59:43.812Z,2.10
2022-08-05T23:02:17.367Z,2.70
2022-08-05T23:04:52.039Z,1.43
2022-08-05T23:07:22.038Z,1.90
2022-08-05T23:09:58.117Z,1.90
2022-08-05T23:12:33.316Z,1.77
2022-08-05T23:15:03.530Z,1.83
2022-08-05T23:17:37.196Z,3.30
2022-08-05T23:20:16.303Z,2.20
2022-08-05T23:22:47.675Z,2.47
2022-08-05T23:25:51.635Z,1.83
2022-08-05T23:28:07.874Z,1.70
2022-08-05T23:30:40.113Z,1.80
2022-08-05T23:33:22.229Z,1.83
2022-08-05T23:35:56.405Z,1.73
2022-08-05T23:38:25.931Z,1.73
2022-08-05T23:40:54.993Z,1.50
2022-08-05T23:43:49.736Z,2.17
2022-08-05T23:46:21.040Z,1.60
2022-08-05T23:48:59.164Z,1.40
2022-08-05T23:51:53.576Z,2.10
2022-08-05T23:54:25.878Z,1.60
2022-08-05T23:57:03.370Z,1.60
